Time;durP1;ratioP1;P1;durP2;ratioP2;P2;SDS_P1;SDS_P2;PMS_P1;PMS_P2;Temp;Humidity;BMP_temperature;BMP_pressure;BME280_temperature;BME280_humidity;BME280_pressure;Samples;Min_cycle;Max_cycle;Signal;HPM_P1;HPM_P2
2023/09/08 00:03:14;;;;;;;14.88;9.75;;;;;;;18.76;60.47;101804.31;15613905;28;20149;-47
2023/09/08 00:10:48;;;;;;;;;;;;;;;18.57;61.40;101808.19;15613555;28;20045;-51
2023/09/08 00:18:22;;;;;;;13.15;9.40;;;;;;;18.42;61.34;101796.94;15611708;28;19959;-47
2023/09/08 00:25:58;;;;;;;12.07;9.63;;;;;;;18.28;62.25;101789.06;15610552;28;20113;-48
2023/09/08 00:33:31;;;;;;;12.93;10.07;;;;;;;18.17;62.32;101792.59;15611168;28;20069;-49
2023/09/08 00:41:06;;;;;;;12.60;10.30;;;;;;;18.07;63.08;101785.00;15609414;28;20068;-51
2023/09/08 00:48:39;;;;;;;12.00;10.13;;;;;;;18.06;62.75;101787.97;15610639;28;20053;-50
2023/09/08 00:56:14;;;;;;;11.70;10.02;;;;;;;17.92;63.10;101781.94;15607938;28;20060;-46
2023/09/08 01:03:47;;;;;;;14.05;9.35;;;;;;;17.78;63.55;101781.31;15609448;28;20406;-50
2023/09/08 01:11:22;;;;;;;13.85;10.80;;;;;;;17.68;63.89;101786.44;15609452;28;20532;-51
2023/09/08 01:18:57;;;;;;;14.57;10.40;;;;;;;17.45;64.78;101783.66;15608517;28;20029;-45
2023/09/08 01:26:36;;;;;;;15.80;11.13;;;;;;;17.42;65.02;101784.94;15608809;28;20099;-46
2023/09/08 01:34:10;;;;;;;15.30;11.65;;;;;;;17.48;64.36;101775.88;15607449;28;20116;-49
2023/09/08 01:41:46;;;;;;;14.10;11.50;;;;;;;17.32;65.06;101773.81;15608175;28;20133;-51
2023/09/08 01:49:18;;;;;;;19.63;11.75;;;;;;;17.43;64.35;101769.47;15607568;28;20065;-49
2023/09/08 01:56:53;;;;;;;14.35;11.35;;;;;;;17.48;64.62;101764.19;15606610;28;20417;-49
2023/09/08 02:04:26;;;;;;;14.93;12.18;;;;;;;17.43;64.27;101762.16;15605803;28;20069;-45
2023/09/08 02:12:01;;;;;;;16.48;12.23;;;;;;;17.27;65.02;101750.06;15613381;28;20120;-46
2023/09/08 02:19:38;;;;;;;15.90;12.63;;;;;;;17.01;65.66;101747.72;15617006;28;20091;-49
2023/09/08 02:27:16;;;;;;;17.50;12.90;;;;;;;17.22;65.57;101735.56;15616246;28;20039;-46
2023/09/08 02:34:49;;;;;;;18.25;12.35;;;;;;;17.23;65.80;101740.72;15616858;28;20042;-45
2023/09/08 02:42:24;;;;;;;18.30;13.05;;;;;;;17.13;65.87;101737.75;15616097;28;20045;-47
2023/09/08 02:49:58;;;;;;;17.52;12.88;;;;;;;17.28;65.13;101735.44;15615407;28;20095;-47
2023/09/08 02:57:32;;;;;;;16.42;12.90;;;;;;;16.90;66.43;101735.75;15615287;28;20034;-49
2023/09/08 03:05:06;;;;;;;16.13;13.27;;;;;;;17.18;65.81;101735.16;15614909;28;20148;-48
2023/09/08 03:12:43;;;;;;;16.95;13.18;;;;;;;17.20;65.53;101726.78;15614417;28;20452;-48
2023/09/08 03:20:16;;;;;;;18.73;13.57;;;;;;;17.02;65.71;101723.09;15613017;28;20045;-48
2023/09/08 03:27:51;;;;;;;21.42;13.55;;;;;;;16.91;66.22;101728.44;15613649;28;20075;-49
2023/09/08 03:35:24;;;;;;;18.90;14.88;;;;;;;17.10;65.51;101724.63;15614292;28;20218;-47
2023/09/08 03:42:59;;;;;;;;;;;;;;;16.66;66.52;101723.91;15613174;28;20053;-50
2023/09/08 03:50:33;;;;;;;19.85;14.93;;;;;;;16.66;66.78;101720.38;15656759;22;19974;-48
2023/09/08 03:58:21;;;;;;;;;;;;;;;;;;;;;
2023/09/08 04:06:00;;;;;;;20.65;15.23;;;;;;;16.49;67.27;101731.81;15734056;28;20127;-48
2023/09/08 04:13:35;;;;;;;;;;;;;;;16.66;66.64;101723.09;15732664;28;20127;-48
2023/09/08 04:21:08;;;;;;;20.65;14.50;;;;;;;16.53;67.10;101730.31;15692675;28;19994;-49
2023/09/08 04:28:42;;;;;;;22.90;15.63;;;;;;;16.57;67.05;101734.22;15739728;28;20060;-51
2023/09/08 04:36:32;;;;;;;19.20;15.15;;;;;;;16.46;67.35;101736.84;15704755;28;20033;-48
2023/09/08 04:44:07;;;;;;;20.70;16.60;;;;;;;16.28;67.73;101734.97;15676561;28;20047;-49
2023/09/08 04:51:41;;;;;;;19.38;15.68;;;;;;;16.22;68.27;101733.97;15719585;28;20037;-47
2023/09/08 04:59:16;;;;;;;22.73;14.73;;;;;;;16.39;67.78;101741.53;15732127;28;20036;-50
2023/09/08 05:06:50;;;;;;;29.65;15.98;;;;;;;16.41;67.86;101745.66;15731991;28;20032;-49
2023/09/08 05:14:29;;;;;;;22.85;15.32;;;;;;;16.62;67.47;101746.28;15723529;28;20036;-48
2023/09/08 05:22:02;;;;;;;27.45;15.38;;;;;;;16.81;67.66;101743.38;15689371;28;20049;-49
2023/09/08 05:29:38;;;;;;;25.52;15.95;;;;;;;16.55;69.31;101744.47;15674555;28;20041;-51
2023/09/08 05:37:11;;;;;;;22.35;15.48;;;;;;;16.51;69.39;101740.56;15674760;28;20064;-48
2023/09/08 05:44:47;;;;;;;;;;;;;;;17.33;67.68;101742.88;15701696;28;20436;-51
2023/09/08 05:52:22;;;;;;;21.77;14.90;;;;;;;17.44;67.18;101750.25;15696118;28;20007;-47
2023/09/08 05:59:57;;;;;;;19.50;13.55;;;;;;;18.18;64.95;101755.38;15685830;28;20028;-47
2023/09/08 06:07:31;;;;;;;18.55;13.50;;;;;;;17.85;65.47;101749.41;15685628;28;20045;-50
2023/09/08 06:15:09;;;;;;;16.63;13.23;;;;;;;18.54;63.89;101746.94;15718760;28;20047;-52
2023/09/08 06:22:42;;;;;;;16.90;13.68;;;;;;;18.50;63.69;101745.78;15748750;28;20067;-49
2023/09/08 06:30:19;;;;;;;19.48;12.77;;;;;;;18.57;64.18;101753.81;15746555;28;20047;-47
2023/09/08 06:37:52;;;;;;;15.85;12.02;;;;;;;19.52;61.29;101749.72;15730174;28;20068;-47
2023/09/08 06:45:27;;;;;;;17.10;11.27;;;;;;;20.28;58.81;101742.81;15745987;28;20484;-49
2023/09/08 06:53:01;;;;;;;14.55;10.98;;;;;;;20.54;57.97;101749.50;15748576;28;20098;-49
2023/09/08 07:00:39;;;;;;;16.98;10.57;;;;;;;21.07;56.16;101737.03;15744430;28;20037;-49
2023/09/08 07:08:12;;;;;;;14.40;10.00;;;;;;;21.19;56.66;101747.81;15744691;28;20040;-50
2023/09/08 07:15:47;;;;;;;14.85;10.02;;;;;;;21.07;56.38;101747.13;15689355;28;20059;-47
2023/09/08 07:23:20;;;;;;;12.18;9.38;;;;;;;21.91;54.22;101746.59;15681526;28;20041;-48
2023/09/08 07:31:01;;;;;;;11.10;8.50;;;;;;;22.99;53.07;101748.91;15680981;28;20041;-54
2023/09/08 07:38:36;;;;;;;14.15;9.00;;;;;;;23.45;51.82;101748.19;15681703;28;20039;-48
2023/09/08 07:46:12;;;;;;;11.52;7.97;;;;;;;23.14;50.16;101742.66;15680405;28;20037;-48
2023/09/08 07:53:45;;;;;;;10.90;7.28;;;;;;;23.91;48.85;101754.53;15680372;28;20125;-48
2023/09/08 08:01:19;;;;;;;11.10;7.60;;;;;;;23.90;47.77;101761.94;15680221;28;20414;-49
2023/09/08 08:08:53;;;;;;;8.57;6.95;;;;;;;25.07;45.98;101757.25;15684800;28;20049;-55
2023/09/08 08:16:27;;;;;;;9.95;7.30;;;;;;;25.19;46.73;101755.84;15721835;28;20055;-50
2023/09/08 08:24:01;;;;;;;9.18;6.93;;;;;;;25.69;45.05;101753.84;15740608;28;20501;-49
2023/09/08 08:31:38;;;;;;;11.82;7.30;;;;;;;26.02;46.45;101742.31;15740120;28;20485;-48
2023/09/08 08:39:16;;;;;;;12.23;6.63;;;;;;;26.40;43.81;101735.88;15739852;28;20404;-50
2023/09/08 08:46:51;;;;;;;14.50;6.93;;;;;;;27.24;42.60;101735.38;15740400;28;20070;-51
2023/09/08 08:54:25;;;;;;;9.70;6.50;;;;;;;27.34;42.31;101729.72;15739057;28;20048;-54
2023/09/08 09:02:00;;;;;;;11.68;6.78;;;;;;;27.78;42.52;101722.13;15683965;28;20056;-51
2023/09/08 09:09:34;;;;;;;10.00;6.63;;;;;;;28.20;40.35;101718.31;15676367;28;20060;-49
2023/09/08 09:17:11;;;;;;;7.20;5.60;;;;;;;28.83;38.87;101711.25;15726828;28;20047;-51
2023/09/08 09:24:44;;;;;;;9.65;5.85;;;;;;;29.41;38.32;101710.47;15750054;28;20064;-51
2023/09/08 09:32:24;;;;;;;8.55;5.03;;;;;;;29.60;37.79;101705.59;15707979;28;20053;-50
2023/09/08 09:39:57;;;;;;;8.45;5.68;;;;;;;29.60;37.35;101710.31;15687095;28;20120;-50
2023/09/08 09:47:31;;;;;;;10.00;5.68;;;;;;;30.16;35.92;101704.13;15688449;28;20136;-50
2023/09/08 09:55:06;;;;;;;7.20;5.22;;;;;;;30.53;35.04;101701.16;15688374;28;20075;-48
2023/09/08 10:02:40;;;;;;;7.93;5.38;;;;;;;30.76;33.93;101690.81;15703991;28;20128;-51
2023/09/08 10:10:14;;;;;;;8.98;5.32;;;;;;;30.81;33.63;101676.78;15687389;28;20107;-45
2023/09/08 10:17:53;;;;;;;9.70;5.03;;;;;;;31.04;33.23;101672.72;15741255;28;20474;-51
2023/09/08 10:25:29;;;;;;;5.93;4.90;;;;;;;31.72;32.65;101672.97;15747541;28;20044;-46
2023/09/08 10:33:06;;;;;;;9.38;4.85;;;;;;;32.56;32.47;101660.19;15746465;28;20048;-53
2023/09/08 10:40:39;;;;;;;6.22;4.55;;;;;;;32.94;30.62;101654.53;15746024;28;20071;-49
2023/09/08 10:48:15;;;;;;;9.65;4.72;;;;;;;32.39;30.69;101657.53;15744054;28;20295;-47
2023/09/08 10:55:52;;;;;;;10.48;4.70;;;;;;;32.04;31.52;101654.91;15737523;28;20127;-49
2023/09/08 11:03:44;;;;;;;6.78;4.47;;;;;;;32.82;29.82;101654.44;15745207;28;20405;-48
2023/09/08 11:11:17;;;;;;;5.55;4.60;;;;;;;33.20;28.47;101657.09;15742203;28;20036;-57
2023/09/08 11:18:53;;;;;;;6.57;4.70;;;;;;;32.91;29.48;101646.88;15683496;28;20036;-49
2023/09/08 11:26:26;;;;;;;5.70;4.25;;;;;;;32.04;30.23;101654.06;15680284;28;20370;-45
2023/09/08 11:34:00;;;;;;;7.28;4.90;;;;;;;33.48;28.29;101640.63;15681376;28;20041;-49
2023/09/08 11:41:33;;;;;;;7.57;4.55;;;;;;;34.48;28.39;101629.19;15678799;28;20052;-49
2023/09/08 11:49:08;;;;;;;6.25;4.47;;;;;;;33.86;26.78;101636.75;15678434;28;20543;-48
2023/09/08 11:56:41;;;;;;;4.75;4.07;;;;;;;34.01;27.01;101627.72;15679142;28;20111;-52
2023/09/08 12:04:20;;;;;;;7.45;4.40;;;;;;;34.08;27.76;101623.53;15680435;28;20095;-47
2023/09/08 12:11:54;;;;;;;6.97;4.33;;;;;;;34.09;26.59;101603.69;15727521;28;20119;-50
2023/09/08 12:19:31;;;;;;;5.82;4.30;;;;;;;33.72;26.73;101600.88;15682492;28;20041;-52
2023/09/08 12:27:05;;;;;;;4.90;3.70;;;;;;;33.77;27.25;101588.69;15678490;28;20051;-46
2023/09/08 12:34:40;;;;;;;7.05;4.05;;;;;;;33.82;26.30;101590.44;15678840;28;20072;-52
2023/09/08 12:42:14;;;;;;;6.82;4.60;;;;;;;33.83;26.43;101578.94;15696904;28;20116;-46
2023/09/08 12:49:48;;;;;;;5.32;4.30;;;;;;;33.73;26.41;101582.19;15731618;28;20063;-47
2023/09/08 12:57:21;;;;;;;6.45;4.13;;;;;;;34.26;25.78;101558.81;15738213;28;20060;-49
2023/09/08 13:04:56;;;;;;;4.88;4.03;;;;;;;35.12;25.65;101560.53;15739328;28;20040;-56
2023/09/08 13:12:31;;;;;;;5.22;3.95;;;;;;;34.44;25.24;101553.78;15727496;28;20127;-48
2023/09/08 13:20:07;;;;;;;6.63;4.10;;;;;;;34.98;24.44;101545.03;15658941;28;20079;-49
2023/09/08 13:27:41;;;;;;;8.02;4.40;;;;;;;34.60;25.27;101539.13;15676186;28;20048;-51
2023/09/08 13:35:16;;;;;;;7.78;4.20;;;;;;;34.37;24.74;101527.66;15713352;28;20052;-51
2023/09/08 13:42:49;;;;;;;5.47;3.92;;;;;;;34.04;25.32;101513.94;15719245;28;20059;-47
2023/09/08 13:50:24;;;;;;;4.78;3.88;;;;;;;34.33;23.90;101518.41;15710872;28;20041;-50
2023/09/08 13:57:57;;;;;;;6.47;4.07;;;;;;;32.47;27.11;101507.41;15712268;28;20103;-51
2023/09/08 14:05:31;;;;;;;6.47;4.45;;;;;;;31.24;28.27;101513.09;15680184;28;20049;-52
2023/09/08 14:13:05;;;;;;;5.57;4.50;;;;;;;31.46;27.92;101504.56;15723827;28;20516;-49
2023/09/08 14:20:39;;;;;;;7.28;4.78;;;;;;;30.83;29.71;101513.72;15685177;28;20037;-48
2023/09/08 14:28:12;;;;;;;7.72;4.28;;;;;;;30.68;30.24;101509.47;15686059;28;20044;-50
2023/09/08 14:35:51;;;;;;;6.13;4.35;;;;;;;30.60;29.47;101502.81;15699066;28;20044;-47
2023/09/08 14:43:25;;;;;;;6.18;4.20;;;;;;;30.48;28.97;101494.31;15745445;28;20555;-48
2023/09/08 14:50:59;;;;;;;6.68;4.70;;;;;;;30.19;29.78;101497.75;15745460;28;20041;-51
2023/09/08 14:58:34;;;;;;;6.25;4.88;;;;;;;30.40;29.60;101497.91;15743215;28;20497;-50
2023/09/08 15:06:09;;;;;;;7.55;5.13;;;;;;;29.93;31.10;101500.44;15742182;28;20112;-48
2023/09/08 15:13:44;;;;;;;8.02;4.88;;;;;;;29.81;31.57;101486.44;15721458;28;20048;-53
2023/09/08 15:21:25;;;;;;;8.05;4.80;;;;;;;30.09;31.29;101492.50;15678425;28;20049;-50
2023/09/08 15:28:59;;;;;;;7.03;4.80;;;;;;;29.73;32.47;101486.06;15679105;28;20033;-47
2023/09/08 15:36:51;;;;;;;7.93;4.88;;;;;;;30.01;31.96;101479.47;15738511;28;20048;-47
2023/09/08 15:44:25;;;;;;;9.98;4.72;;;;;;;29.80;33.68;101474.56;15709752;28;20045;-52
2023/09/08 15:52:00;;;;;;;6.80;4.88;;;;;;;29.52;33.37;101471.19;15681827;22;1091966;-51
2023/09/08 15:59:34;;;;;;;8.35;4.78;;;;;;;29.56;33.70;101463.06;15726422;28;20041;-49
2023/09/08 16:07:09;;;;;;;8.63;5.22;;;;;;;29.23;34.05;101464.22;15697991;28;20045;-51
2023/09/08 16:14:43;;;;;;;8.38;4.55;;;;;;;29.32;33.76;101460.69;15704117;28;20052;-46
2023/09/08 16:22:18;;;;;;;7.80;5.20;;;;;;;29.27;33.37;101450.59;15736144;28;20075;-51
2023/09/08 16:29:51;;;;;;;5.55;4.53;;;;;;;29.01;34.67;101447.72;15698588;28;20048;-50
2023/09/08 16:37:26;;;;;;;8.63;4.90;;;;;;;28.38;35.70;101434.94;15735412;28;20056;-50
2023/09/08 16:44:59;;;;;;;8.20;4.93;;;;;;;28.29;35.48;101443.13;15735900;28;20067;-52
2023/09/08 16:52:33;;;;;;;9.05;5.38;;;;;;;28.21;36.65;101441.94;15734676;28;20072;-52
2023/09/08 17:00:08;;;;;;;12.32;5.53;;;;;;;28.19;37.80;101446.94;15735221;28;20053;-48
2023/09/08 17:07:43;;;;;;;8.05;5.57;;;;;;;27.55;37.90;101454.41;15734319;28;20068;-49
2023/09/08 17:15:16;;;;;;;7.60;5.05;;;;;;;27.45;38.55;101449.09;15699721;28;20068;-49
2023/09/08 17:22:51;;;;;;;7.28;5.13;;;;;;;26.91;38.16;101464.44;15703419;28;20421;-49
2023/09/08 17:30:24;;;;;;;10.60;5.75;;;;;;;26.85;38.70;101466.44;15710327;28;20099;-50
2023/09/08 17:37:58;;;;;;;10.43;5.20;;;;;;;26.88;39.53;101471.34;15715637;28;20041;-49
2023/09/08 17:45:31;;;;;;;10.30;5.30;;;;;;;26.77;40.16;101466.34;15746065;28;20052;-53
2023/09/08 17:53:05;;;;;;;8.15;5.20;;;;;;;26.49;39.27;101469.00;15745916;28;20075;-47
2023/09/08 18:00:38;;;;;;;9.45;5.65;;;;;;;25.85;40.83;101459.44;15743563;28;20068;-51
2023/09/08 18:08:14;;;;;;;8.80;5.30;;;;;;;25.69;40.83;101476.13;15743950;28;20319;-44
2023/09/08 18:15:47;;;;;;;7.90;5.35;;;;;;;26.03;41.85;101469.66;15743794;28;20051;-49
2023/09/08 18:23:22;;;;;;;11.23;5.50;;;;;;;25.12;41.64;101466.03;15743293;28;20037;-48
2023/09/08 18:30:58;;;;;;;8.70;5.65;;;;;;;25.32;41.73;101459.50;15742181;28;20045;-47
2023/09/08 18:38:33;;;;;;;12.52;5.82;;;;;;;25.35;41.12;101464.41;15740459;28;20070;-45
2023/09/08 18:46:07;;;;;;;10.10;5.85;;;;;;;25.53;40.99;101451.84;15740671;28;20124;-43
2023/09/08 18:53:41;;;;;;;9.27;5.75;;;;;;;24.99;41.13;101448.25;15741221;28;20056;-50
2023/09/08 19:01:14;;;;;;;10.60;5.95;;;;;;;24.86;41.64;101444.28;15733589;28;20110;-50
2023/09/08 19:08:49;;;;;;;10.20;6.05;;;;;;;24.76;42.01;101454.53;15700200;28;20037;-48
2023/09/08 19:16:22;;;;;;;10.85;6.13;;;;;;;24.34;43.21;101456.78;15702605;28;20037;-51
2023/09/08 19:23:57;;;;;;;10.63;5.97;;;;;;;24.17;43.50;101459.88;15719467;28;20098;-48
2023/09/08 19:31:30;;;;;;;8.35;6.32;;;;;;;24.52;42.91;101463.50;15701948;28;20147;-46
2023/09/08 19:39:04;;;;;;;8.15;6.70;;;;;;;23.72;44.95;101449.16;15701906;28;20055;-45
2023/09/08 19:46:37;;;;;;;9.63;6.82;;;;;;;23.59;45.16;101456.84;15718087;28;20045;-47
2023/09/08 19:54:11;;;;;;;10.45;6.85;;;;;;;23.81;46.24;101458.44;15702157;28;20106;-43
2023/09/08 20:01:46;;;;;;;10.88;7.05;;;;;;;23.50;47.12;101460.44;15695859;28;20063;-45
2023/09/08 20:09:21;;;;;;;8.68;6.82;;;;;;;23.53;47.42;101460.72;15722139;28;20461;-44
2023/09/08 20:16:56;;;;;;;12.45;7.88;;;;;;;23.32;47.17;101450.94;15735592;28;20044;-45
2023/09/08 20:24:31;;;;;;;12.10;7.50;;;;;;;22.80;50.22;101460.28;15726626;28;20045;-43
2023/09/08 20:32:06;;;;;;;11.05;8.18;;;;;;;22.50;50.43;101463.84;15673767;28;20049;-51
2023/09/08 20:39:41;;;;;;;12.32;8.68;;;;;;;22.26;51.18;101458.06;15731890;28;20040;-46
2023/09/08 20:47:16;;;;;;;12.82;9.20;;;;;;;22.05;51.93;101466.19;15734192;28;20210;-46
2023/09/08 20:54:50;;;;;;;14.20;9.23;;;;;;;21.48;53.48;101458.03;15734752;28;20064;-43
2023/09/08 21:02:23;;;;;;;13.00;8.88;;;;;;;21.19;54.62;101461.13;15716654;28;20095;-45
2023/09/08 21:09:58;;;;;;;11.73;9.70;;;;;;;20.87;55.59;101466.63;15729350;28;20037;-47
2023/09/08 21:17:31;;;;;;;16.00;10.55;;;;;;;20.99;55.74;101450.91;15698361;28;20268;-42
2023/09/08 21:25:16;;;;;;;14.93;10.40;;;;;;;20.78;55.78;101449.09;15671707;28;20394;-47
2023/09/08 21:32:50;;;;;;;16.50;10.05;;;;;;;20.79;56.37;101450.75;15711195;28;20032;-49
2023/09/08 21:40:25;;;;;;;17.45;10.85;;;;;;;20.88;55.89;101447.25;15733754;28;20040;-44
2023/09/08 21:47:57;;;;;;;16.35;11.15;;;;;;;20.72;56.63;101436.50;15719669;28;20095;-45
2023/09/08 21:55:33;;;;;;;15.30;12.02;;;;;;;20.42;57.42;101439.75;15671347;28;20086;-43
2023/09/08 22:03:06;;;;;;;15.27;10.98;;;;;;;20.24;57.97;101449.16;15669699;28;20037;-44
2023/09/08 22:10:40;;;;;;;15.80;11.27;;;;;;;20.29;57.93;101443.75;15720016;28;20055;-44
2023/09/08 22:18:13;;;;;;;15.30;11.00;;;;;;;20.07;58.55;101444.59;15671223;28;20041;-47
2023/09/08 22:25:48;;;;;;;14.20;10.80;;;;;;;19.88;59.44;101441.41;15673003;28;20044;-46
2023/09/08 22:33:21;;;;;;;16.02;11.30;;;;;;;19.81;59.53;101446.22;15680598;28;20132;-44
2023/09/08 22:40:56;;;;;;;14.85;10.65;;;;;;;19.73;59.79;101441.22;15662504;28;20435;-46
2023/09/08 22:48:31;;;;;;;14.18;11.45;;;;;;;19.51;60.40;101437.66;15679684;28;20040;-43
2023/09/08 22:56:06;;;;;;;14.45;10.80;;;;;;;19.50;60.90;101436.00;15662085;28;20331;-45
2023/09/08 23:03:39;;;;;;;13.57;11.25;;;;;;;19.37;60.76;101435.28;15680618;28;20120;-46
2023/09/08 23:11:15;;;;;;;14.15;11.57;;;;;;;19.21;61.40;101441.63;15679238;28;20053;-42
2023/09/08 23:18:48;;;;;;;14.95;12.10;;;;;;;19.07;61.71;101446.59;15739869;28;20060;-43
2023/09/08 23:26:22;;;;;;;;;;;;;;;19.02;61.82;101442.94;15739388;28;20063;-45
2023/09/08 23:33:55;;;;;;;22.63;13.00;;;;;;;18.95;62.12;101437.69;15737158;28;20606;-42
2023/09/08 23:41:29;;;;;;;15.85;13.20;;;;;;;18.74;63.03;101436.53;15737552;28;20485;-46
2023/09/08 23:49:02;;;;;;;19.27;13.52;;;;;;;18.76;62.86;101428.97;15737789;28;20074;-46
2023/09/08 23:56:36;;;;;;;;;;;;;;;18.63;62.67;101417.56;15737560;28;20094;-49
